SBBR/BSB METAR and TAF weather

Enter ICAO airport designator
Station Type Date Time Source
SBBR METAR 2022/12/04 04:00 UTC NOAA

SBBR 040400Z 04007KT 9999 -RA BKN005 BKN020 OVC070 19/18 Q1016


Station Type Date Time Source
SBBR Decoded METAR 2022/12/04 04:00 UTC NOAA

Brasilia Aeroporto , Brazil (SBBR) 15-52S 047-56W 1061M
Dec 03, 2022 - 11:00 PM EST / 2022.12.04 0400 UTC
Wind: from the NE (040 degrees) at 8 MPH (7 KT):0
Visibility: greater than 7 mile(s):0
Sky conditions: overcast
Weather: light rain
Temperature: 66 F (19 C)
Dew Point: 64 F (18 C)
Relative Humidity: 93%
Pressure (altimeter): 30.00 in. Hg (1016 hPa)
ob: SBBR 040400Z 04007KT 9999 -RA BKN005 BKN020 OVC070 19/18 Q1016
cycle: 4

Station Type Date Time Source
SBBR TAF 2022/12/04 00:00 UTC NOAA

TAF SBBR 032230Z 0400/0424 09007KT 9999 SCT025 FEW040TCU TN18/0409Z TX27/0417Z
TEMPO 0400/0405 04010KT 8000 TSRA BKN030 FEW040CB
TEMPO 0405/0410 7000 RA BKN025
TEMPO 0416/0418 04010KT 9999 VCTS SCT030 FEW040CB
TEMPO 0421/0424 04010KT 8000 TSRA BKN030 FEW040CB
RMK PHH

Example: see airport list